Time;durP1;ratioP1;P1;durP2;ratioP2;P2;SDS_P1;SDS_P2;PMS_P1;PMS_P2;Temp;Humidity;BMP_temperature;BMP_pressure;BME280_temperature;BME280_humidity;BME280_pressure;Samples;Min_cycle;Max_cycle;Signal;HPM_P1;HPM_P2
2022/02/07 00:00:10;;;;;;;1.10;1.00;;;5.90;99.90;;;;;;5060062;28;20181;-61
2022/02/07 00:05:26;;;;;;;1.00;0.90;;;5.90;99.90;;;;;;5056478;28;20213;-60
2022/02/07 00:07:53;;;;;;;0.80;0.80;;;5.80;99.90;;;;;;5053084;28;20264;-60
2022/02/07 00:10:19;;;;;;;1.00;0.90;;;5.80;99.90;;;;;;5069800;28;20227;-60
2022/02/07 00:12:47;;;;;;;1.10;1.00;;;5.80;99.90;;;;;;5055295;28;20206;-59
2022/02/07 00:15:17;;;;;;;1.00;0.90;;;5.80;99.90;;;;;;5069702;28;20186;-60
2022/02/07 00:17:42;;;;;;;1.35;1.00;;;5.40;99.90;;;;;;5057287;28;20205;-62
2022/02/07 00:20:14;;;;;;;0.90;0.90;;;4.80;99.90;;;;;;5070033;28;20691;-61
2022/02/07 00:22:40;;;;;;;1.10;0.90;;;4.40;99.90;;;;;;5066774;28;20443;-61
2022/02/07 00:25:06;;;;;;;0.90;0.90;;;3.90;99.90;;;;;;5061150;28;20214;-62
2022/02/07 00:27:31;;;;;;;3.23;0.90;;;3.70;99.90;;;;;;5060491;28;20178;-60
2022/02/07 00:29:57;;;;;;;0.80;0.80;;;3.60;99.90;;;;;;5054221;28;20423;-60
2022/02/07 00:32:22;;;;;;;0.70;0.70;;;3.60;99.90;;;;;;5055257;28;20290;-60
2022/02/07 00:34:48;;;;;;;0.90;0.80;;;3.50;99.90;;;;;;5067915;28;20181;-61
2022/02/07 00:37:14;;;;;;;0.93;0.80;;;3.50;99.90;;;;;;5061476;28;20181;-61
2022/02/07 00:39:51;;;;;;;0.90;0.80;;;3.50;99.90;;;;;;5049545;28;20214;-60
2022/02/07 00:42:25;;;;;;;1.02;0.90;;;3.40;99.90;;;;;;5058919;28;20204;-61
2022/02/07 00:44:51;;;;;;;0.70;0.70;;;3.50;99.90;;;;;;5059767;28;20185;-61
2022/02/07 00:47:17;;;;;;;1.60;1.00;;;3.40;99.90;;;;;;5068483;28;20625;-60
2022/02/07 00:49:43;;;;;;;1.17;0.80;;;3.40;99.90;;;;;;5066772;28;20687;-60
2022/02/07 00:52:09;;;;;;;0.82;0.70;;;3.40;99.90;;;;;;5067239;28;20222;-61
2022/02/07 00:54:35;;;;;;;0.90;0.90;;;3.40;99.90;;;;;;5052923;28;20537;-61
2022/02/07 00:57:00;;;;;;;0.68;0.65;;;3.40;99.90;;;;;;5052140;28;20179;-61
2022/02/07 00:59:26;;;;;;;0.93;0.83;;;3.50;99.90;;;;;;5053262;28;20166;-61
2022/02/07 01:01:51;;;;;;;1.57;0.80;;;3.60;99.90;;;;;;5046381;28;20181;-61
2022/02/07 01:04:17;;;;;;;0.97;0.80;;;3.60;99.90;;;;;;5053055;28;20643;-61
2022/02/07 01:06:43;;;;;;;2.10;0.90;;;3.60;99.90;;;;;;5053126;28;20170;-61
2022/02/07 01:09:16;;;;;;;1.73;1.00;;;3.60;99.90;;;;;;5052854;28;20451;-61
2022/02/07 01:14:47;;;;;;;2.25;1.45;;;3.60;99.90;;;;;;5036326;28;20202;-61
2022/02/07 01:55:09;;;;;;;1.30;1.00;;;2.90;99.90;;;;;;5072010;28;20189;-61
2022/02/07 01:57:34;;;;;;;1.50;1.20;;;2.90;99.90;;;;;;5050646;28;20593;-60
2022/02/07 02:00:00;;;;;;;2.50;1.40;;;2.90;99.90;;;;;;5063500;28;20264;-60
2022/02/07 02:02:26;;;;;;;3.40;1.75;;;2.90;99.90;;;;;;5055404;28;20190;-60
2022/02/07 02:04:51;;;;;;;1.33;1.17;;;3.00;99.90;;;;;;5060710;28;20627;-60
2022/02/07 02:07:17;;;;;;;3.53;1.40;;;3.00;99.90;;;;;;5058437;28;20193;-60
2022/02/07 02:09:44;;;;;;;1.40;1.30;;;3.00;99.90;;;;;;5052384;28;20174;-62
2022/02/07 02:12:10;;;;;;;2.67;1.15;;;3.10;99.90;;;;;;5046041;28;20479;-61
2022/02/07 02:45:27;;;;;;;1.50;1.13;;;3.40;99.90;;;;;;5063515;28;20185;-61
2022/02/07 02:47:08;;;;;;;2.40;1.40;;;3.40;99.90;;;;;;5050496;28;20326;-61
2022/02/07 02:49:44;;;;;;;3.73;1.50;;;3.40;99.90;;;;;;5070186;28;20277;-60
2022/02/07 02:52:10;;;;;;;1.83;1.10;;;3.40;99.90;;;;;;5056342;28;20336;-60
2022/02/07 02:54:35;;;;;;;1.83;1.40;;;3.40;99.90;;;;;;5062199;28;20644;-60
2022/02/07 02:57:01;;;;;;;1.50;1.10;;;3.50;99.90;;;;;;5049946;28;20188;-60
2022/02/07 02:59:27;;;;;;;2.77;1.30;;;3.60;99.90;;;;;;5050118;28;20302;-55
2022/02/07 03:01:52;;;;;;;4.03;1.40;;;3.60;99.90;;;;;;5054509;28;20213;-60
2022/02/07 03:04:18;;;;;;;6.30;1.30;;;3.70;99.90;;;;;;5070539;28;20269;-60
2022/02/07 03:06:43;;;;;;;1.73;1.30;;;3.60;99.90;;;;;;5052931;28;20236;-61
2022/02/07 03:09:13;;;;;;;2.10;1.47;;;3.60;99.90;;;;;;5059130;28;20178;-61
2022/02/07 03:11:39;;;;;;;1.70;1.20;;;3.50;99.90;;;;;;5070438;28;20239;-60
2022/02/07 03:14:06;;;;;;;1.40;1.20;;;3.60;99.90;;;;;;5066461;28;20197;-63
2022/02/07 03:16:38;;;;;;;3.17;1.48;;;3.50;99.90;;;;;;5049006;28;20185;-59
2022/02/07 03:19:15;;;;;;;2.30;1.42;;;3.50;99.90;;;;;;5058101;28;21010;-54
2022/02/07 03:21:42;;;;;;;4.78;1.65;;;3.50;99.90;;;;;;5066176;28;20173;-54
2022/02/07 03:24:09;;;;;;;2.15;1.20;;;3.50;99.90;;;;;;5058404;28;20628;-56
2022/02/07 03:26:38;;;;;;;3.63;1.30;;;3.50;99.90;;;;;;5054164;28;20179;-56
2022/02/07 03:29:05;;;;;;;2.55;1.50;;;3.50;99.90;;;;;;5069222;28;20322;-54
2022/02/07 03:31:31;;;;;;;1.50;1.30;;;3.60;99.90;;;;;;5061641;28;20624;-53
2022/02/07 03:33:56;;;;;;;1.50;1.30;;;3.60;99.90;;;;;;5055229;28;20255;-54
2022/02/07 03:36:22;;;;;;;3.43;2.83;;;3.70;99.90;;;;;;5059448;28;20181;-51
2022/02/07 03:38:48;;;;;;;3.57;1.30;;;3.70;99.90;;;;;;5054027;28;20177;-51
2022/02/07 03:41:13;;;;;;;2.93;1.30;;;3.70;99.90;;;;;;5056602;28;20173;-56
2022/02/07 03:43:39;;;;;;;2.73;1.30;;;3.70;99.90;;;;;;5064905;28;20416;-54
2022/02/07 03:46:05;;;;;;;2.13;1.40;;;3.70;99.90;;;;;;5070162;28;20250;-55
2022/02/07 03:48:32;;;;;;;3.90;1.47;;;3.80;99.90;;;;;;5070178;28;20189;-51
2022/02/07 03:50:58;;;;;;;2.33;1.13;;;3.80;99.90;;;;;;5070158;28;20189;-53
2022/02/07 03:53:24;;;;;;;3.50;1.55;;;3.80;99.90;;;;;;5051994;28;20244;-56
2022/02/07 03:55:50;;;;;;;3.23;1.30;;;3.80;99.90;;;;;;5049989;28;20190;-55
2022/02/07 03:58:20;;;;;;;3.75;1.60;;;3.80;99.90;;;;;;5064485;28;20679;-54
2022/02/07 04:00:51;;;;;;;2.67;1.52;;;3.80;99.90;;;;;;5053846;28;20224;-54
2022/02/07 04:03:19;;;;;;;2.20;1.20;;;3.70;99.90;;;;;;5052776;28;20182;-56
2022/02/07 04:08:12;;;;;;;2.13;1.27;;;3.70;99.90;;;;;;5067491;28;20216;-55
2022/02/07 04:11:04;;;;;;;1.52;1.38;;;3.70;99.90;;;;;;5052828;28;20182;-52
2022/02/07 04:13:29;;;;;;;1.65;1.33;;;3.70;99.90;;;;;;5067946;28;20302;-51
2022/02/07 04:15:56;;;;;;;3.90;1.25;;;3.70;99.90;;;;;;5073662;28;20178;-51
2022/02/07 04:18:25;;;;;;;3.30;1.40;;;3.70;99.90;;;;;;5072621;28;20270;-52
2022/02/07 04:20:51;;;;;;;2.40;1.50;;;3.70;99.90;;;;;;5067448;28;20193;-53
2022/02/07 04:23:16;;;;;;;2.10;1.30;;;3.70;99.90;;;;;;5057675;28;20206;-54
2022/02/07 04:25:42;;;;;;;6.50;2.47;;;3.70;99.90;;;;;;5052849;28;20263;-56
2022/02/07 04:28:07;;;;;;;1.43;1.30;;;3.70;99.90;;;;;;5053159;28;20178;-55
2022/02/07 04:30:33;;;;;;;2.10;1.30;;;3.70;99.90;;;;;;5052855;28;20228;-55
2022/02/07 04:32:58;;;;;;;1.10;1.00;;;3.70;99.90;;;;;;5053590;28;20245;-55
2022/02/07 04:35:25;;;;;;;1.47;1.20;;;3.70;99.90;;;;;;5053470;28;20194;-56
2022/02/07 04:37:51;;;;;;;4.00;1.40;;;3.80;99.90;;;;;;5052004;28;20186;-53
2022/02/07 04:40:16;;;;;;;1.57;1.40;;;3.80;99.90;;;;;;5053546;28;20189;-55
2022/02/07 04:42:42;;;;;;;2.60;1.37;;;3.80;99.90;;;;;;5053486;28;20183;-53
2022/02/07 04:45:52;;;;;;;2.70;1.67;;;3.70;99.90;;;;;;5053393;28;20186;-56
2022/02/07 04:56:19;;;;;;;1.98;1.52;;;3.70;99.90;;;;;;5051850;28;20165;-52
2022/02/07 05:03:51;;;;;;;2.75;1.40;;;3.70;99.90;;;;;;5065594;28;20185;-53
2022/02/07 05:14:31;;;;;;;1.65;1.23;;;3.60;99.90;;;;;;5069740;28;20219;-53
2022/02/07 05:16:57;;;;;;;3.58;1.35;;;3.50;99.90;;;;;;5055134;28;20515;-55
2022/02/07 05:19:23;;;;;;;2.28;1.63;;;3.50;99.90;;;;;;5061749;28;20277;-56
2022/02/07 05:21:49;;;;;;;2.67;1.30;;;3.50;99.90;;;;;;5049967;28;20190;-52
2022/02/07 05:24:15;;;;;;;2.93;1.63;;;3.60;99.90;;;;;;5051613;28;20182;-51
2022/02/07 05:26:40;;;;;;;2.60;1.70;;;3.70;99.90;;;;;;5051443;28;20656;-53
2022/02/07 05:29:07;;;;;;;3.83;1.90;;;3.60;99.90;;;;;;5051381;28;20174;-60
2022/02/07 05:31:33;;;;;;;1.88;1.55;;;3.60;99.90;;;;;;5050894;28;20185;-54
2022/02/07 05:33:58;;;;;;;2.92;1.80;;;3.60;99.90;;;;;;5050936;28;20206;-53
2022/02/07 05:36:24;;;;;;;6.50;2.30;;;3.60;99.90;;;;;;5051351;28;20501;-54
2022/02/07 05:38:53;;;;;;;2.07;1.60;;;3.70;99.90;;;;;;5050741;28;20637;-56
2022/02/07 05:41:19;;;;;;;1.73;1.40;;;3.70;99.90;;;;;;5051185;28;20186;-53
2022/02/07 05:43:47;;;;;;;2.67;2.00;;;3.70;99.90;;;;;;5051111;28;20162;-53
2022/02/07 05:46:14;;;;;;;2.80;1.60;;;3.70;99.90;;;;;;5050323;28;20574;-55
2022/02/07 05:48:39;;;;;;;6.60;2.42;;;3.70;99.90;;;;;;5051176;28;20577;-54
2022/02/07 05:51:05;;;;;;;4.57;1.93;;;3.70;99.90;;;;;;5051025;28;20260;-52
2022/02/07 05:53:30;;;;;;;4.60;1.97;;;3.70;99.90;;;;;;5015448;28;1033558;-52
2022/02/07 05:55:56;;;;;;;4.00;1.63;;;3.70;99.90;;;;;;5048775;28;20224;-53
2022/02/07 05:58:21;;;;;;;3.60;1.87;;;3.80;99.90;;;;;;5050069;28;20182;-55
2022/02/07 06:00:47;;;;;;;3.57;1.33;;;3.80;99.90;;;;;;5052116;28;20193;-54
2022/02/07 06:03:12;;;;;;;3.07;1.80;;;3.80;99.90;;;;;;5048079;28;20266;-55
2022/02/07 06:05:38;;;;;;;4.10;1.50;;;3.80;99.90;;;;;;5054128;28;20221;-56
2022/02/07 06:08:04;;;;;;;3.00;1.63;;;3.80;99.90;;;;;;5062952;28;20200;-53
2022/02/07 06:10:29;;;;;;;2.53;1.60;;;3.80;99.90;;;;;;5051651;28;20200;-53
2022/02/07 06:12:55;;;;;;;3.40;1.27;;;3.80;99.90;;;;;;5067064;28;20289;-54
2022/02/07 06:15:21;;;;;;;3.60;1.77;;;3.90;99.90;;;;;;5051629;28;20573;-52
2022/02/07 06:17:50;;;;;;;2.57;1.50;;;3.90;99.90;;;;;;5051941;28;20190;-53
2022/02/07 06:20:16;;;;;;;2.80;1.77;;;3.90;99.90;;;;;;5064453;28;20231;-55
2022/02/07 06:22:41;;;;;;;4.13;1.63;;;3.80;99.90;;;;;;5058248;28;20186;-51
2022/02/07 06:25:07;;;;;;;7.00;1.93;;;3.80;99.90;;;;;;5057559;28;20182;-53
2022/02/07 06:27:33;;;;;;;3.00;1.50;;;3.90;99.90;;;;;;5050767;28;20190;-51
2022/02/07 06:29:59;;;;;;;3.73;1.83;;;3.70;99.90;;;;;;5066195;28;20415;-52
2022/02/07 06:32:25;;;;;;;2.60;1.67;;;3.70;99.90;;;;;;5053706;28;20559;-56
2022/02/07 06:34:51;;;;;;;3.58;1.30;;;3.70;99.90;;;;;;5059298;28;20190;-56
2022/02/07 06:37:16;;;;;;;4.30;2.27;;;3.70;99.90;;;;;;5059652;28;20589;-55
2022/02/07 06:39:42;;;;;;;3.73;1.53;;;3.50;99.90;;;;;;5062471;28;20181;-56
2022/02/07 06:42:07;;;;;;;3.83;1.40;;;3.50;99.90;;;;;;5061493;28;20526;-53
2022/02/07 06:44:33;;;;;;;2.10;1.50;;;3.40;99.90;;;;;;5055689;28;20250;-55
2022/02/07 06:46:59;;;;;;;4.20;1.60;;;3.40;99.90;;;;;;5057048;28;20576;-54
2022/02/07 06:49:24;;;;;;;3.73;1.77;;;3.40;99.90;;;;;;5059704;28;20179;-58
2022/02/07 06:51:50;;;;;;;6.00;1.57;;;3.40;99.90;;;;;;5057222;28;20186;-55
2022/02/07 06:54:15;;;;;;;4.40;1.67;;;3.40;99.90;;;;;;5050687;28;20703;-53
2022/02/07 06:56:41;;;;;;;2.87;1.87;;;3.40;99.90;;;;;;5049642;28;20182;-55
2022/02/07 06:59:07;;;;;;;1.90;1.40;;;3.50;99.90;;;;;;5047161;28;20167;-55
2022/02/07 07:01:33;;;;;;;2.30;1.57;;;3.50;99.90;;;;;;5052458;28;20193;-54
2022/02/07 07:03:58;;;;;;;5.03;1.50;;;3.50;99.90;;;;;;5052724;28;20186;-55
2022/02/07 07:06:24;;;;;;;2.83;1.43;;;3.50;99.90;;;;;;5064786;28;20540;-56
2022/02/07 07:08:53;;;;;;;3.00;1.47;;;3.40;99.90;;;;;;5059272;28;20179;-55
2022/02/07 07:11:23;;;;;;;3.40;1.70;;;3.50;99.90;;;;;;5048992;28;20224;-53
2022/02/07 07:13:56;;;;;;;3.65;1.65;;;3.40;99.90;;;;;;5062418;28;20201;-56
2022/02/07 07:16:38;;;;;;;3.22;1.40;;;3.40;99.90;;;;;;5055696;28;20181;-56
2022/02/07 07:19:04;;;;;;;2.85;1.10;;;3.40;99.90;;;;;;5053143;28;20657;-55
2022/02/07 07:21:31;;;;;;;3.78;2.05;;;3.30;99.90;;;;;;5062533;28;20239;-58
2022/02/07 07:23:57;;;;;;;2.35;1.60;;;3.30;99.90;;;;;;5064743;28;20572;-53
2022/02/07 07:26:25;;;;;;;3.93;1.83;;;3.20;99.90;;;;;;5068527;28;20186;-54
2022/02/07 07:28:52;;;;;;;7.38;2.28;;;3.20;99.90;;;;;;5069901;28;20610;-54
2022/02/07 07:31:19;;;;;;;2.63;1.50;;;3.10;99.90;;;;;;5068483;28;20177;-54
2022/02/07 07:33:50;;;;;;;4.40;1.80;;;3.10;99.90;;;;;;5070094;28;20217;-54
2022/02/07 07:36:15;;;;;;;4.75;2.30;;;3.10;99.90;;;;;;5056071;28;20177;-54
2022/02/07 07:38:41;;;;;;;9.60;2.03;;;3.20;99.90;;;;;;5055993;28;20553;-51
2022/02/07 07:41:07;;;;;;;4.17;2.23;;;3.20;99.90;;;;;;5056491;28;20699;-55
2022/02/07 07:43:32;;;;;;;3.93;1.97;;;3.30;99.90;;;;;;5049403;28;20186;-56
2022/02/07 07:46:04;;;;;;;5.80;2.40;;;3.30;99.90;;;;;;5047817;28;20277;-55
2022/02/07 07:48:31;;;;;;;3.47;1.83;;;3.40;99.90;;;;;;5052366;28;20269;-56
2022/02/07 07:53:42;;;;;;;3.47;1.83;;;3.50;99.90;;;;;;5053701;28;20234;-52
2022/02/07 08:01:54;;;;;;;3.05;1.98;;;3.60;99.90;;;;;;5050213;28;20367;-55
2022/02/07 08:04:25;;;;;;;3.70;1.95;;;3.60;99.90;;;;;;5049312;28;20545;-56
2022/02/07 08:07:00;;;;;;;3.10;2.10;;;3.60;99.90;;;;;;5053408;28;20193;-53
2022/02/07 08:12:00;;;;;;;4.50;3.30;;;3.60;99.90;;;;;;5064472;28;20192;-52
2022/02/07 08:14:28;;;;;;;4.57;2.50;;;3.50;99.90;;;;;;5064697;28;20535;-54
2022/02/07 08:16:54;;;;;;;2.67;2.20;;;3.50;99.90;;;;;;5063268;28;20198;-56
2022/02/07 08:19:21;;;;;;;4.37;1.70;;;3.50;99.90;;;;;;5068606;28;20188;-60
2022/02/07 08:21:47;;;;;;;2.55;1.85;;;3.50;99.90;;;;;;5055860;28;20652;-52
2022/02/07 08:24:13;;;;;;;2.30;1.70;;;3.60;99.90;;;;;;5062642;28;20193;-52
2022/02/07 08:26:40;;;;;;;3.85;2.00;;;3.70;99.90;;;;;;5053863;28;20193;-54
2022/02/07 08:29:06;;;;;;;2.10;1.80;;;3.80;99.90;;;;;;5048819;28;20235;-53
2022/02/07 08:31:32;;;;;;;3.65;2.20;;;3.70;99.90;;;;;;5048761;28;20257;-52
2022/02/07 08:33:57;;;;;;;3.40;2.53;;;3.80;99.90;;;;;;5065638;28;20703;-52
2022/02/07 08:36:23;;;;;;;5.40;2.00;;;3.90;99.90;;;;;;5055837;28;20641;-55
2022/02/07 08:38:49;;;;;;;2.20;2.00;;;3.90;99.90;;;;;;5056340;28;20264;-55
2022/02/07 08:41:15;;;;;;;3.07;2.20;;;3.90;99.90;;;;;;5064252;28;20781;-61
2022/02/07 08:43:40;;;;;;;2.20;2.00;;;3.90;99.90;;;;;;5062263;28;20720;-54
2022/02/07 08:46:06;;;;;;;3.43;2.00;;;3.90;99.90;;;;;;5050188;28;21224;-52
2022/02/07 08:48:32;;;;;;;2.10;1.90;;;3.90;99.90;;;;;;5054308;28;20532;-56
2022/02/07 08:50:57;;;;;;;2.43;1.93;;;3.80;99.90;;;;;;5067322;28;20182;-55
2022/02/07 08:53:26;;;;;;;4.03;2.57;;;3.70;99.90;;;;;;5067547;28;20236;-55
2022/02/07 08:55:53;;;;;;;2.50;2.30;;;3.80;99.90;;;;;;5051221;28;20444;-51
2022/02/07 08:58:23;;;;;;;2.95;2.10;;;3.70;99.90;;;;;;5052207;28;20186;-59
2022/02/07 09:00:55;;;;;;;3.00;2.20;;;3.80;99.90;;;;;;5048816;28;20186;-57
2022/02/07 09:03:29;;;;;;;2.97;1.95;;;3.70;99.90;;;;;;5055439;28;20533;-54
2022/02/07 09:11:13;;;;;;;2.42;1.90;;;3.90;99.90;;;;;;5046254;28;20605;-53
2022/02/07 09:13:41;;;;;;;2.88;2.22;;;3.80;99.90;;;;;;5051859;28;20270;-56
2022/02/07 09:18:37;;;;;;;2.13;1.90;;;3.80;99.90;;;;;;5051889;28;20155;-52
2022/02/07 09:21:05;;;;;;;2.35;2.00;;;3.90;99.90;;;;;;5050559;28;20166;-55
2022/02/07 09:23:32;;;;;;;4.25;2.10;;;4.00;99.90;;;;;;5050701;28;20174;-57
2022/02/07 09:25:58;;;;;;;2.63;2.05;;;4.00;99.90;;;;;;5051643;28;20178;-57
2022/02/07 09:28:24;;;;;;;2.20;1.97;;;4.00;99.90;;;;;;5051467;28;20189;-52
2022/02/07 09:30:50;;;;;;;4.63;1.97;;;4.00;99.90;;;;;;5051893;28;20178;-56
2022/02/07 09:33:16;;;;;;;2.70;2.03;;;4.10;99.90;;;;;;5050849;28;20464;-56
2022/02/07 09:35:43;;;;;;;2.30;2.08;;;4.00;99.90;;;;;;5051948;28;20170;-54
2022/02/07 09:38:09;;;;;;;3.20;2.30;;;4.00;99.90;;;;;;5051913;28;20179;-57
2022/02/07 09:40:35;;;;;;;2.33;2.10;;;4.00;99.90;;;;;;5050946;28;20159;-59
2022/02/07 09:43:01;;;;;;;2.33;2.13;;;4.10;99.90;;;;;;5046812;28;20633;-55
2022/02/07 09:45:37;;;;;;;3.88;2.20;;;4.10;99.90;;;;;;5051643;28;20265;-56
2022/02/07 09:48:05;;;;;;;2.85;2.58;;;4.30;99.90;;;;;;5055874;28;20201;-53
2022/02/07 09:50:32;;;;;;;2.10;1.90;;;4.30;99.90;;;;;;5042265;28;20198;-57
2022/02/07 09:52:58;;;;;;;2.63;2.17;;;4.20;99.90;;;;;;5051303;28;20814;-55
2022/02/07 09:55:25;;;;;;;2.78;2.53;;;4.30;99.90;;;;;;5050462;28;20195;-57
2022/02/07 09:57:53;;;;;;;3.63;1.95;;;4.40;99.90;;;;;;5049288;28;20182;-54
2022/02/07 10:00:25;;;;;;;2.70;2.45;;;4.50;99.90;;;;;;5068247;28;20177;-55
2022/02/07 10:03:18;;;;;;;5.32;2.05;;;4.50;99.90;;;;;;5058022;28;20247;-57
2022/02/07 10:05:55;;;;;;;2.70;2.28;;;4.60;99.90;;;;;;5051446;28;20660;-52
2022/02/07 10:11:44;;;;;;;3.95;2.67;;;4.60;99.90;;;;;;5057300;28;20250;-55
2022/02/07 10:14:04;;;;;;;3.75;2.20;;;4.60;99.90;;;;;;5063967;28;20265;-57
2022/02/07 10:19:33;;;;;;;3.47;1.60;;;4.80;99.90;;;;;;5070700;28;20212;-51
2022/02/07 10:42:12;;;;;;;4.25;2.13;;;4.60;99.90;;;;;;5067128;28;20564;-55
2022/02/07 10:44:45;;;;;;;6.18;2.13;;;4.70;99.90;;;;;;5023659;28;20356;-56
2022/02/07 10:47:18;;;;;;;3.78;2.17;;;4.70;99.90;;;;;;5058976;28;20233;-55
2022/02/07 10:50:09;;;;;;;3.58;2.10;;;4.80;99.90;;;;;;5053112;28;20189;-58
2022/02/07 10:52:51;;;;;;;5.03;2.30;;;5.00;99.90;;;;;;5068939;28;20229;-54
2022/02/07 10:55:26;;;;;;;5.63;2.25;;;5.20;99.90;;;;;;5045763;28;20221;-53
2022/02/07 10:57:54;;;;;;;4.43;2.35;;;5.30;99.90;;;;;;5061447;28;20185;-58
2022/02/07 11:00:25;;;;;;;3.17;2.05;;;5.40;99.90;;;;;;5068070;28;20643;-54
2022/02/07 11:03:09;;;;;;;5.95;3.10;;;5.50;99.90;;;;;;5069131;28;20536;-57
2022/02/07 11:05:45;;;;;;;4.15;2.20;;;5.60;99.90;;;;;;5059253;28;20654;-56
2022/02/07 11:08:28;;;;;;;4.00;2.40;;;5.70;99.90;;;;;;5063687;28;20181;-53
2022/02/07 11:16:12;;;;;;;5.20;2.47;;;6.50;99.90;;;;;;5051630;28;20186;-53
2022/02/07 11:19:27;;;;;;;3.70;1.93;;;7.20;99.90;;;;;;5049091;28;20481;-52
2022/02/07 11:21:39;;;;;;;4.67;2.97;;;8.10;99.90;;;;;;5049074;28;20475;-52
2022/02/07 11:24:22;;;;;;;3.77;2.40;;;8.90;99.90;;;;;;5049351;28;20840;-54
2022/02/07 11:26:48;;;;;;;5.87;2.90;;;9.30;99.90;;;;;;5049556;28;20895;-53
2022/02/07 11:29:46;;;;;;;5.30;2.73;;;9.60;99.90;;;;;;5059695;28;20427;-53
2022/02/07 11:32:41;;;;;;;4.80;2.80;;;9.10;99.80;;;;;;5063759;28;20508;-51
2022/02/07 11:35:12;;;;;;;11.67;3.30;;;8.70;99.90;;;;;;5053002;28;20413;-53
2022/02/07 11:37:38;;;;;;;7.83;3.30;;;8.50;99.90;;;;;;5049106;28;20420;-55
2022/02/07 11:40:27;;;;;;;7.83;3.00;;;8.20;99.90;;;;;;5049151;28;20429;-53
2022/02/07 11:43:04;;;;;;;5.37;2.80;;;7.90;99.90;;;;;;5049495;28;20420;-52
2022/02/07 11:45:54;;;;;;;7.80;2.80;;;7.60;99.90;;;;;;5048626;28;20436;-52
2022/02/07 11:48:30;;;;;;;4.90;3.07;;;7.50;99.90;;;;;;5049150;28;20417;-53
2022/02/07 11:50:58;;;;;;;8.80;3.10;;;7.60;99.90;;;;;;5049636;28;20416;-53
2022/02/07 11:53:39;;;;;;;5.00;2.97;;;7.60;99.90;;;;;;5049375;28;20526;-53
2022/02/07 11:56:12;;;;;;;5.10;2.93;;;7.60;99.90;;;;;;5048677;28;20518;-52
2022/02/07 11:58:53;;;;;;;5.00;3.30;;;7.60;99.90;;;;;;5049340;28;20757;-53
2022/02/07 12:01:53;;;;;;;4.57;2.87;;;7.50;99.90;;;;;;5048738;28;20834;-52
2022/02/07 12:04:33;;;;;;;9.00;4.03;;;7.30;99.90;;;;;;5049475;28;20393;-55
2022/02/07 12:07:11;;;;;;;4.57;2.80;;;7.20;99.90;;;;;;5049398;28;20213;-53
2022/02/07 12:10:06;;;;;;;4.55;2.70;;;7.10;99.90;;;;;;5046849;28;20436;-54
2022/02/07 12:12:41;;;;;;;5.30;2.93;;;7.20;99.90;;;;;;5047478;28;20225;-54
2022/02/07 12:15:49;;;;;;;5.47;2.90;;;7.30;99.90;;;;;;5048934;28;20408;-54
2022/02/07 12:18:14;;;;;;;5.37;2.60;;;7.50;99.90;;;;;;5038849;28;20472;-55
2022/02/07 12:20:43;;;;;;;4.13;2.40;;;8.40;99.90;;;;;;5049258;28;20440;-53
2022/02/07 12:23:19;;;;;;;4.60;2.73;;;9.10;99.90;;;;;;5051975;28;20231;-54
2022/02/07 12:25:56;;;;;;;6.53;2.70;;;9.90;96.20;;;;;;5051536;28;20499;-52
2022/02/07 12:33:35;;;;;;;4.40;3.10;;;11.30;92.80;;;;;;5051432;28;20471;-53
2022/02/07 12:36:03;;;;;;;6.30;3.67;;;12.00;86.50;;;;;;5052907;28;20982;-52
2022/02/07 12:38:33;;;;;;;6.50;3.40;;;12.00;81.40;;;;;;5050958;28;20438;-55
2022/02/07 12:40:59;;;;;;;7.03;3.20;;;11.40;83.00;;;;;;5052215;28;20486;-53
2022/02/07 12:43:25;;;;;;;5.10;3.07;;;10.80;83.40;;;;;;5051888;28;20427;-54
2022/02/07 12:45:51;;;;;;;4.00;3.40;;;10.20;86.00;;;;;;5058304;28;20300;-50
2022/02/07 12:48:23;;;;;;;3.83;3.43;;;9.90;91.00;;;;;;5052245;28;20528;-55
2022/02/07 12:50:51;;;;;;;7.50;3.60;;;9.90;91.50;;;;;;5054680;28;20182;-55
2022/02/07 12:53:21;;;;;;;9.33;3.60;;;9.40;93.00;;;;;;5068843;28;20478;-56
2022/02/07 12:55:47;;;;;;;9.87;2.80;;;9.20;91.80;;;;;;5050515;28;20445;-53
2022/02/07 12:58:13;;;;;;;3.20;2.90;;;9.00;92.30;;;;;;5052349;28;20421;-54
2022/02/07 13:00:39;;;;;;;5.53;2.90;;;9.30;92.30;;;;;;5063889;28;20481;-52
2022/02/07 13:03:05;;;;;;;6.13;3.40;;;9.30;91.50;;;;;;5060345;28;20455;-51
2022/02/07 13:05:31;;;;;;;6.30;3.50;;;9.30;92.50;;;;;;5069611;28;20871;-54
2022/02/07 13:08:00;;;;;;;4.50;3.00;;;9.60;90.60;;;;;;5052133;28;20194;-56
2022/02/07 13:10:33;;;;;;;3.30;2.97;;;10.00;89.70;;;;;;5049982;28;20412;-55
2022/02/07 13:15:34;;;;;;;7.23;3.00;;;10.70;86.20;;;;;;5058204;28;20452;-55
2022/02/07 13:18:04;;;;;;;4.40;2.93;;;10.70;85.60;;;;;;5045033;28;20412;-55
2022/02/07 13:20:29;;;;;;;5.63;3.50;;;11.00;83.90;;;;;;5058974;28;20456;-50
2022/02/07 13:23:07;;;;;;;4.03;3.50;;;11.20;78.00;;;;;;5051786;28;20448;-54
2022/02/07 13:25:54;;;;;;;4.73;3.10;;;10.80;76.80;;;;;;5047444;28;20193;-54
2022/02/07 13:28:24;;;;;;;6.97;3.93;;;10.60;80.00;;;;;;5050147;28;20413;-59
2022/02/07 13:30:53;;;;;;;4.20;3.30;;;10.80;80.70;;;;;;5051139;28;20880;-52
2022/02/07 13:33:20;;;;;;;4.17;3.10;;;11.00;76.60;;;;;;5050652;28;20460;-50
2022/02/07 13:35:49;;;;;;;4.23;3.17;;;11.60;77.70;;;;;;5052599;28;20421;-50
2022/02/07 13:38:18;;;;;;;4.73;3.40;;;12.10;74.80;;;;;;5047437;28;20436;-52
2022/02/07 13:40:46;;;;;;;5.77;3.53;;;12.30;72.00;;;;;;5052269;28;20574;-50
2022/02/07 13:43:21;;;;;;;4.20;3.37;;;11.80;67.90;;;;;;5052792;28;20485;-59
2022/02/07 13:45:49;;;;;;;8.20;4.10;;;10.80;68.60;;;;;;5048156;28;20788;-55
2022/02/07 13:48:23;;;;;;;8.77;4.10;;;10.00;75.10;;;;;;5050887;28;20459;-53
2022/02/07 13:50:53;;;;;;;5.43;3.80;;;9.40;79.80;;;;;;5049623;28;20500;-53
2022/02/07 13:53:20;;;;;;;5.93;3.23;;;8.80;84.40;;;;;;5050641;28;20529;-54
2022/02/07 13:55:51;;;;;;;7.20;3.93;;;8.10;96.60;;;;;;5051692;28;20504;-51
2022/02/07 13:58:40;;;;;;;5.47;3.60;;;7.30;99.90;;;;;;5048778;28;20432;-50
2022/02/07 14:01:15;;;;;;;5.30;2.33;;;6.40;99.90;;;;;;5044755;28;20199;-52
2022/02/07 14:03:48;;;;;;;3.42;1.80;;;5.80;99.90;;;;;;5050808;28;20181;-51
2022/02/07 14:06:16;;;;;;;2.42;2.13;;;5.50;99.90;;;;;;5049434;28;20265;-49
2022/02/07 14:08:46;;;;;;;2.22;1.60;;;5.00;99.90;;;;;;5049911;28;20560;-49
2022/02/07 14:11:16;;;;;;;3.83;1.40;;;4.80;99.90;;;;;;5067742;28;20190;-50
2022/02/07 14:13:42;;;;;;;1.98;1.40;;;4.60;99.90;;;;;;5046498;28;20569;-52
2022/02/07 14:16:10;;;;;;;1.47;1.30;;;4.50;99.90;;;;;;5060540;28;20221;-54
2022/02/07 14:18:38;;;;;;;2.45;1.13;;;4.50;99.90;;;;;;5052124;28;20413;-53
2022/02/07 14:21:09;;;;;;;1.58;1.38;;;4.70;99.90;;;;;;5060186;28;20217;-52
2022/02/07 14:23:36;;;;;;;2.00;1.13;;;4.80;99.90;;;;;;5060669;28;20205;-50
2022/02/07 14:26:03;;;;;;;1.50;1.05;;;5.00;99.90;;;;;;5060580;28;20174;-54
2022/02/07 14:28:29;;;;;;;3.42;1.58;;;5.40;99.90;;;;;;5067763;28;20276;-52
2022/02/07 14:30:55;;;;;;;2.17;1.50;;;6.00;99.90;;;;;;5039675;28;20265;-52
2022/02/07 14:33:21;;;;;;;4.80;1.53;;;6.30;99.90;;;;;;5040080;28;20843;-51
2022/02/07 14:35:47;;;;;;;2.65;1.60;;;6.50;99.90;;;;;;5046666;28;20192;-54
2022/02/07 14:38:13;;;;;;;3.53;2.10;;;6.80;99.90;;;;;;5049481;28;20182;-53
2022/02/07 14:40:41;;;;;;;5.97;2.00;;;7.20;99.90;;;;;;5048676;28;20208;-51
2022/02/07 14:43:08;;;;;;;4.60;1.90;;;7.50;99.90;;;;;;5048460;28;20490;-53
2022/02/07 14:45:42;;;;;;;10.13;2.60;;;7.80;99.90;;;;;;5050456;28;20417;-52
2022/02/07 14:48:08;;;;;;;2.10;1.90;;;7.70;99.90;;;;;;5050009;28;20554;-52
2022/02/07 14:50:35;;;;;;;3.57;2.00;;;7.50;99.90;;;;;;5049770;28;20982;-53
2022/02/07 14:53:01;;;;;;;2.97;2.00;;;7.30;99.90;;;;;;5048549;28;20925;-51
2022/02/07 14:55:27;;;;;;;4.80;2.50;;;6.90;99.90;;;;;;5048130;28;20417;-52
2022/02/07 14:57:54;;;;;;;4.07;2.08;;;6.60;99.90;;;;;;5048508;28;20421;-49
2022/02/07 15:00:23;;;;;;;4.28;2.25;;;6.50;99.90;;;;;;5049074;28;20186;-51
2022/02/07 15:02:49;;;;;;;3.45;1.95;;;6.30;99.90;;;;;;5048231;28;20182;-52
2022/02/07 15:05:16;;;;;;;4.50;2.50;;;6.10;99.90;;;;;;5046895;28;20209;-50
2022/02/07 15:07:43;;;;;;;5.97;2.00;;;6.10;99.90;;;;;;5051066;28;21399;-52
2022/02/07 15:10:10;;;;;;;2.22;1.60;;;6.10;99.90;;;;;;5044708;28;20187;-54
2022/02/07 15:12:35;;;;;;;5.38;2.05;;;6.10;99.90;;;;;;5049545;28;20210;-49
2022/02/07 15:15:02;;;;;;;4.40;2.57;;;6.00;99.90;;;;;;5050698;28;20185;-54
2022/02/07 15:17:31;;;;;;;5.97;2.20;;;6.00;99.90;;;;;;5044996;28;20257;-52
2022/02/07 15:19:57;;;;;;;5.13;2.25;;;5.90;99.90;;;;;;5043041;28;20182;-53
2022/02/07 15:22:24;;;;;;;5.93;2.30;;;5.90;99.90;;;;;;5043692;28;20178;-54
2022/02/07 15:24:50;;;;;;;4.38;2.45;;;5.90;99.90;;;;;;5047034;28;20232;-52
2022/02/07 15:27:16;;;;;;;5.90;2.50;;;5.90;99.90;;;;;;5043053;28;20178;-49
2022/02/07 15:29:44;;;;;;;5.87;2.90;;;5.80;99.90;;;;;;5045923;28;20514;-53
2022/02/07 15:32:21;;;;;;;8.20;3.13;;;5.70;99.90;;;;;;5048684;28;20170;-52
2022/02/07 15:34:51;;;;;;;6.13;3.03;;;5.70;99.90;;;;;;5053167;28;20960;-52
2022/02/07 15:37:17;;;;;;;8.48;2.75;;;5.70;99.90;;;;;;5050884;28;20174;-48
2022/02/07 15:39:43;;;;;;;6.53;2.88;;;5.60;99.90;;;;;;5049372;28;20173;-49